createdAt,value
2024-01-28T00:03:18.487Z,94.40
2024-01-28T00:06:41.229Z,81.00
2024-01-28T00:10:03.802Z,95.30
2024-01-28T00:13:27.237Z,70.50
2024-01-28T00:16:52.337Z,91.50
2024-01-28T00:20:14.979Z,60.60
2024-01-28T00:23:37.206Z,77.50
2024-01-28T00:26:59.623Z,99.90
2024-01-28T00:30:21.820Z,94.30
2024-01-28T00:33:44.299Z,92.10
2024-01-28T00:37:06.637Z,74.80
2024-01-28T00:40:29.227Z,84.00
2024-01-28T00:43:53.885Z,73.60
2024-01-28T00:47:16.447Z,70.90
2024-01-28T00:50:38.579Z,67.40
2024-01-28T00:54:01.373Z,82.90
2024-01-28T00:57:23.492Z,87.00
2024-01-28T01:00:45.687Z,86.30
2024-01-28T01:04:08.177Z,44.70
2024-01-28T01:07:31.066Z,91.50
2024-01-28T01:10:53.289Z,83.60
2024-01-28T01:14:15.373Z,9.70
2024-01-28T01:17:38.296Z,15.10
2024-01-28T01:21:00.909Z,36.10
2024-01-28T01:24:24.363Z,1.00
2024-01-28T01:27:50.209Z,43.30
2024-01-28T01:31:12.688Z,1.00
2024-01-28T01:34:34.893Z,37.00
2024-01-28T01:37:57.273Z,57.70
2024-01-28T01:41:19.434Z,66.60
2024-01-28T01:44:41.818Z,83.40
2024-01-28T01:48:06.896Z,90.00
2024-01-28T01:51:31.074Z,10.00
2024-01-28T01:54:54.943Z,43.10
2024-01-28T01:58:17.740Z,83.80
2024-01-28T02:01:40.346Z,80.00
2024-01-28T02:05:03.214Z,46.40
2024-01-28T02:08:25.649Z,30.60
2024-01-28T02:11:48.119Z,70.20
2024-01-28T02:15:11.620Z,59.20
2024-01-28T02:18:33.867Z,41.80
2024-01-28T02:21:56.120Z,57.40
2024-01-28T02:25:18.378Z,69.70
2024-01-28T02:28:40.547Z,30.20
2024-01-28T02:32:03.074Z,60.70
2024-01-28T02:35:25.294Z,55.90
2024-01-28T02:38:47.775Z,73.50
2024-01-28T02:42:10.227Z,77.80
2024-01-28T02:45:33.360Z,64.00
2024-01-28T02:48:56.294Z,57.60
2024-01-28T02:52:18.747Z,70.30
2024-01-28T02:55:40.853Z,12.60
2024-01-28T02:59:04.742Z,1.00
2024-01-28T03:02:27.172Z,1.00
2024-01-28T03:05:49.315Z,59.20
2024-01-28T03:09:11.655Z,64.50
2024-01-28T03:12:35.394Z,56.70
2024-01-28T03:15:59.448Z,51.80
2024-01-28T03:19:22.046Z,47.10
2024-01-28T03:22:44.664Z,35.90
2024-01-28T03:26:06.858Z,31.90
2024-01-28T03:29:29.089Z,25.70
2024-01-28T03:32:51.728Z,23.10
2024-01-28T03:36:14.213Z,19.10
2024-01-28T03:39:36.350Z,16.80
2024-01-28T03:42:58.847Z,11.50
2024-01-28T03:46:21.220Z,9.20
2024-01-28T03:49:43.378Z,4.90
2024-01-28T03:53:06.195Z,4.80
2024-01-28T03:56:28.513Z,3.10
2024-01-28T03:59:51.131Z,7.90
2024-01-28T04:03:13.939Z,3.20
2024-01-28T04:06:45.802Z,6.30
2024-01-28T04:10:08.604Z,10.80
2024-01-28T04:13:30.748Z,7.10
2024-01-28T04:16:53.158Z,8.00
2024-01-28T04:20:15.784Z,6.80
2024-01-28T04:23:40.661Z,5.60
2024-01-28T04:27:03.036Z,7.60
2024-01-28T04:30:28.000Z,3.40
2024-01-28T04:33:51.039Z,12.30
2024-01-28T04:37:13.693Z,13.50
2024-01-28T04:40:35.910Z,18.50
2024-01-28T04:43:58.184Z,21.90
2024-01-28T04:47:20.279Z,22.10
2024-01-28T04:50:42.593Z,18.50
2024-01-28T04:54:04.960Z,25.00
2024-01-28T04:57:28.354Z,33.10
2024-01-28T05:00:51.487Z,31.60
2024-01-28T05:04:14.074Z,28.60
2024-01-28T05:07:36.514Z,31.60
2024-01-28T05:10:58.952Z,39.30
2024-01-28T05:14:21.524Z,28.60
2024-01-28T05:17:45.887Z,53.60
2024-01-28T05:21:08.157Z,58.70
2024-01-28T05:24:30.234Z,56.80
2024-01-28T05:27:52.448Z,53.10
2024-01-28T05:31:15.120Z,55.60
2024-01-28T05:34:37.565Z,54.00
2024-01-28T05:38:00.880Z,66.30
2024-01-28T05:41:23.396Z,67.70
2024-01-28T05:44:45.762Z,67.70
2024-01-28T05:48:08.802Z,80.20
2024-01-28T05:51:34.191Z,82.60
2024-01-28T05:54:56.687Z,87.40
2024-01-28T05:58:19.055Z,79.30
2024-01-28T06:01:41.470Z,85.90
2024-01-28T06:05:05.206Z,89.00
2024-01-28T06:08:28.168Z,80.50
2024-01-28T06:11:50.381Z,78.00
2024-01-28T06:15:12.901Z,74.00
2024-01-28T06:18:37.038Z,85.70
2024-01-28T06:22:03.441Z,93.00
2024-01-28T06:25:25.657Z,92.60
2024-01-28T06:28:48.358Z,66.80
2024-01-28T06:32:11.299Z,62.80
2024-01-28T06:35:33.609Z,74.30
2024-01-28T06:38:56.240Z,85.60
2024-01-28T06:42:20.002Z,89.70
2024-01-28T06:45:42.360Z,83.00
2024-01-28T06:49:05.166Z,96.00
2024-01-28T06:52:27.790Z,95.60
2024-01-28T06:55:49.964Z,90.50
2024-01-28T06:59:12.260Z,35.20
2024-01-28T07:02:34.508Z,58.90
2024-01-28T07:05:56.852Z,96.50
2024-01-28T07:09:19.421Z,91.30
2024-01-28T07:12:43.409Z,60.20
2024-01-28T07:16:07.749Z,44.80
2024-01-28T07:19:30.364Z,18.20
2024-01-28T07:22:52.810Z,3.60
2024-01-28T07:26:15.172Z,2.50
2024-01-28T07:29:38.037Z,41.30
2024-01-28T07:33:01.508Z,41.40
2024-01-28T07:36:23.940Z,1.00
2024-01-28T07:39:47.020Z,22.90
2024-01-28T07:43:09.786Z,19.50
2024-01-28T07:46:31.939Z,1.00
2024-01-28T07:49:54.512Z,1.00
2024-01-28T07:53:16.974Z,1.00
2024-01-28T07:56:39.535Z,11.20
2024-01-28T08:00:02.015Z,1.00
2024-01-28T08:03:34.881Z,1.00
2024-01-28T08:06:57.509Z,69.60
2024-01-28T08:10:19.805Z,15.80
2024-01-28T08:13:42.813Z,1.00
2024-01-28T08:17:05.365Z,1.00
2024-01-28T08:20:27.651Z,1.00
2024-01-28T08:23:50.428Z,1.00
2024-01-28T08:27:13.314Z,1.00
2024-01-28T08:30:36.033Z,1.00
2024-01-28T08:33:58.648Z,1.00
2024-01-28T08:37:23.772Z,99.90
2024-01-28T08:40:46.287Z,1.00
2024-01-28T08:44:08.438Z,1.00
2024-01-28T08:47:32.683Z,1.00
2024-01-28T08:50:55.463Z,1.00
2024-01-28T08:54:18.189Z,99.90
2024-01-28T08:57:40.948Z,99.90
2024-01-28T09:01:03.620Z,99.90
2024-01-28T09:04:26.674Z,99.90
2024-01-28T09:07:48.770Z,99.90
2024-01-28T09:11:11.674Z,99.90
2024-01-28T09:14:33.906Z,99.90
2024-01-28T09:17:56.182Z,99.90
2024-01-28T09:21:18.864Z,99.90
2024-01-28T09:24:41.190Z,99.90
2024-01-28T09:28:04.398Z,99.90
2024-01-28T09:31:26.734Z,99.90
2024-01-28T09:34:49.280Z,99.90
2024-01-28T09:38:11.568Z,99.90
2024-01-28T09:41:50.285Z,99.90
2024-01-28T09:45:13.194Z,99.90
2024-01-28T09:48:36.142Z,99.90
2024-01-28T09:51:58.716Z,99.90
2024-01-28T09:55:21.058Z,99.90
2024-01-28T09:58:44.476Z,99.90
2024-01-28T10:02:07.468Z,99.90
2024-01-28T10:05:29.955Z,99.90
2024-01-28T10:08:52.172Z,62.40
2024-01-28T10:12:15.205Z,1.00
2024-01-28T10:15:37.821Z,1.00
2024-01-28T10:19:01.220Z,53.10
2024-01-28T10:22:24.205Z,2.70
2024-01-28T10:25:48.586Z,19.30
2024-01-28T10:29:12.436Z,26.20
2024-01-28T10:32:34.900Z,1.00
2024-01-28T10:36:07.710Z,1.00
2024-01-28T10:39:36.200Z,1.00
2024-01-28T10:43:02.184Z,1.00
2024-01-28T10:46:39.886Z,1.00
2024-01-28T10:50:06.845Z,1.00
2024-01-28T10:53:30.430Z,1.00
2024-01-28T10:56:55.944Z,1.00
2024-01-28T11:00:22.478Z,1.00
2024-01-28T11:03:46.887Z,1.00
2024-01-28T11:07:09.844Z,1.00
2024-01-28T11:10:32.509Z,1.00
2024-01-28T11:13:57.453Z,1.00
2024-01-28T11:17:20.783Z,1.00
2024-01-28T11:20:42.947Z,1.00
2024-01-28T11:24:12.906Z,1.00
2024-01-28T11:27:39.317Z,1.00
2024-01-28T11:31:02.004Z,1.00
2024-01-28T11:34:24.914Z,1.00
2024-01-28T11:37:59.229Z,1.00
2024-01-28T11:41:24.321Z,99.90
2024-01-28T11:44:49.639Z,99.90
2024-01-28T11:48:15.469Z,1.00
2024-01-28T11:51:38.108Z,1.00
2024-01-28T11:55:13.434Z,1.00
2024-01-28T11:58:35.737Z,1.00
2024-01-28T12:01:58.163Z,1.00
2024-01-28T12:05:20.637Z,1.00
2024-01-28T12:08:45.001Z,1.00
2024-01-28T12:12:11.076Z,1.00
2024-01-28T12:15:33.764Z,1.00
2024-01-28T12:18:57.725Z,1.00
2024-01-28T12:22:20.228Z,1.00
2024-01-28T12:25:42.496Z,1.00
2024-01-28T12:29:06.533Z,1.00
2024-01-28T12:32:29.170Z,1.00
2024-01-28T12:35:51.488Z,1.00
2024-01-28T12:39:13.873Z,1.00
2024-01-28T12:42:37.175Z,1.00
2024-01-28T12:45:59.891Z,1.00
2024-01-28T12:49:22.229Z,1.00
2024-01-28T12:52:45.520Z,1.00
2024-01-28T12:56:08.849Z,1.00
2024-01-28T12:59:30.971Z,1.00
2024-01-28T13:02:53.193Z,1.00
2024-01-28T13:06:16.287Z,1.00
2024-01-28T13:09:39.555Z,1.00
2024-01-28T13:13:01.878Z,1.00
2024-01-28T13:16:24.128Z,1.00
2024-01-28T13:19:51.553Z,1.00
2024-01-28T13:23:14.251Z,1.00
2024-01-28T13:26:37.566Z,1.00
2024-01-28T13:30:03.158Z,1.00
2024-01-28T13:33:25.618Z,1.00
2024-01-28T13:36:48.628Z,1.00
2024-01-28T13:40:11.827Z,1.00
2024-01-28T13:43:36.052Z,1.00
2024-01-28T13:46:59.348Z,1.00
2024-01-28T13:50:21.845Z,1.00
2024-01-28T13:53:44.048Z,1.00
2024-01-28T13:57:07.732Z,1.00
2024-01-28T14:00:30.141Z,1.00
2024-01-28T14:03:52.815Z,1.00
2024-01-28T14:07:15.146Z,1.00
2024-01-28T14:10:37.793Z,1.00
2024-01-28T14:14:01.498Z,1.00
2024-01-28T14:17:23.927Z,1.00
2024-01-28T14:20:46.333Z,1.00
2024-01-28T14:24:08.926Z,1.00
2024-01-28T14:27:31.561Z,1.00
2024-01-28T14:30:53.718Z,1.00
2024-01-28T14:34:16.300Z,1.00
2024-01-28T14:37:38.671Z,1.00
2024-01-28T14:41:01.225Z,1.00
2024-01-28T14:44:24.014Z,1.00
2024-01-28T14:47:46.838Z,1.00
2024-01-28T14:51:09.575Z,1.00
2024-01-28T14:54:31.696Z,1.00
2024-01-28T14:57:54.524Z,1.00
2024-01-28T15:01:17.568Z,1.00
2024-01-28T15:04:39.919Z,1.00
2024-01-28T15:08:03.309Z,1.00
2024-01-28T15:11:25.367Z,1.00
2024-01-28T15:14:47.547Z,1.00
2024-01-28T15:18:09.955Z,1.00
2024-01-28T15:21:32.315Z,1.00
2024-01-28T15:24:57.476Z,1.00
2024-01-28T15:28:25.531Z,1.00
2024-01-28T15:31:51.967Z,1.00
2024-01-28T15:35:14.610Z,1.00
2024-01-28T15:38:37.322Z,1.00
2024-01-28T15:42:00.372Z,1.00
2024-01-28T15:45:23.108Z,1.00
2024-01-28T15:48:45.889Z,1.00
2024-01-28T15:52:08.226Z,1.00
2024-01-28T15:55:32.100Z,1.00
2024-01-28T15:58:56.637Z,1.00
2024-01-28T16:02:19.451Z,1.00
2024-01-28T16:05:42.715Z,1.00
2024-01-28T16:09:05.278Z,1.00
2024-01-28T16:12:27.752Z,1.80
2024-01-28T16:15:50.143Z,38.20
2024-01-28T16:19:14.798Z,89.60
2024-01-28T16:22:38.217Z,99.90
2024-01-28T16:26:00.983Z,99.90
2024-01-28T16:29:23.425Z,99.90
2024-01-28T16:32:45.969Z,99.90
2024-01-28T16:36:08.289Z,99.90
2024-01-28T16:39:32.198Z,99.90
2024-01-28T16:42:55.023Z,99.90
2024-01-28T16:46:18.545Z,99.90
2024-01-28T16:49:41.259Z,99.90
2024-01-28T16:53:07.727Z,99.90
2024-01-28T16:56:30.211Z,99.90
2024-01-28T16:59:52.699Z,99.90
2024-01-28T17:03:15.737Z,99.90
2024-01-28T17:06:38.600Z,99.90
2024-01-28T17:10:01.154Z,99.90
2024-01-28T17:13:23.676Z,99.90
2024-01-28T17:16:46.277Z,1.00
2024-01-28T17:20:09.377Z,1.00
2024-01-28T17:23:31.809Z,1.00
2024-01-28T17:26:54.891Z,1.00
2024-01-28T17:30:17.379Z,1.00
2024-01-28T17:33:39.618Z,1.00
2024-01-28T17:37:02.117Z,1.00
2024-01-28T17:40:24.759Z,1.00
2024-01-28T17:43:48.453Z,1.00
2024-01-28T17:47:10.782Z,99.90
2024-01-28T17:50:33.019Z,1.00
2024-01-28T17:53:55.502Z,1.00
2024-01-28T17:57:20.024Z,1.00
2024-01-28T18:00:42.404Z,1.00
2024-01-28T18:04:05.299Z,1.00
2024-01-28T18:07:27.922Z,1.00
2024-01-28T18:10:50.443Z,1.00
2024-01-28T18:14:13.844Z,1.00
2024-01-28T18:17:36.594Z,1.00
2024-01-28T18:20:58.915Z,1.00
2024-01-28T18:24:21.324Z,1.00
2024-01-28T18:27:44.444Z,1.00
2024-01-28T18:31:07.366Z,1.00
2024-01-28T18:34:29.677Z,1.00
2024-01-28T18:37:51.953Z,1.00
2024-01-28T18:41:14.206Z,1.00
2024-01-28T18:44:37.396Z,1.00
2024-01-28T18:47:59.800Z,1.00
2024-01-28T18:51:22.336Z,1.00
2024-01-28T18:54:46.038Z,6.50
2024-01-28T18:58:08.666Z,6.10
2024-01-28T19:01:31.134Z,18.40
2024-01-28T19:04:53.494Z,22.20
2024-01-28T19:08:16.186Z,26.90
2024-01-28T19:11:39.192Z,43.10
2024-01-28T19:15:05.221Z,47.20
2024-01-28T19:18:28.015Z,28.90
2024-01-28T19:21:50.241Z,11.20
2024-01-28T19:25:17.792Z,1.00
2024-01-28T19:28:41.804Z,1.00
2024-01-28T19:32:05.691Z,1.00
2024-01-28T19:35:28.007Z,1.00
2024-01-28T19:38:50.478Z,9.00
2024-01-28T19:42:12.663Z,1.00
2024-01-28T19:45:36.016Z,1.00
2024-01-28T19:48:58.887Z,1.00
2024-01-28T19:52:21.926Z,1.00
2024-01-28T19:55:44.680Z,1.00
2024-01-28T19:59:07.262Z,1.00
2024-01-28T20:02:29.565Z,1.00
2024-01-28T20:05:52.417Z,1.00
2024-01-28T20:09:14.942Z,1.00
2024-01-28T20:12:39.360Z,1.00
2024-01-28T20:16:01.973Z,1.00
2024-01-28T20:19:24.725Z,1.00
2024-01-28T20:22:47.400Z,1.00
2024-01-28T20:26:09.814Z,1.00
2024-01-28T20:29:32.930Z,1.00
2024-01-28T20:32:55.394Z,1.00
2024-01-28T20:36:19.087Z,1.00
2024-01-28T20:39:41.607Z,1.00
2024-01-28T20:43:04.242Z,1.00
2024-01-28T20:46:26.747Z,1.00
2024-01-28T20:49:50.528Z,1.00
2024-01-28T20:53:12.966Z,1.00
2024-01-28T20:56:36.812Z,1.00
2024-01-28T20:59:59.756Z,3.00
2024-01-28T21:03:22.354Z,1.00
2024-01-28T21:06:44.601Z,1.00
2024-01-28T21:10:08.382Z,1.00
2024-01-28T21:13:30.755Z,1.00
2024-01-28T21:16:53.071Z,1.00
2024-01-28T21:20:15.880Z,1.00
2024-01-28T21:23:38.275Z,1.00
2024-01-28T21:27:00.837Z,1.00
2024-01-28T21:30:24.295Z,1.00
2024-01-28T21:33:46.707Z,1.00
2024-01-28T21:37:09.522Z,32.20
2024-01-28T21:40:32.486Z,30.00
2024-01-28T21:43:55.098Z,25.50
2024-01-28T21:47:17.712Z,14.80
2024-01-28T21:50:40.088Z,3.60
2024-01-28T21:54:02.363Z,5.30
2024-01-28T21:57:24.514Z,1.00
2024-01-28T22:00:46.835Z,2.40
2024-01-28T22:04:09.214Z,6.70
2024-01-28T22:07:32.491Z,24.20
2024-01-28T22:10:55.263Z,27.20
2024-01-28T22:14:18.336Z,19.20
2024-01-28T22:17:41.471Z,6.60
2024-01-28T22:21:04.485Z,11.30
2024-01-28T22:24:27.357Z,3.20
2024-01-28T22:27:50.515Z,14.60
2024-01-28T22:31:13.089Z,26.30
2024-01-28T22:34:35.421Z,9.90
2024-01-28T22:37:59.101Z,30.50
2024-01-28T22:41:21.334Z,30.00
2024-01-28T22:44:43.716Z,1.00
2024-01-28T22:48:06.811Z,18.80
2024-01-28T22:51:29.408Z,2.10
2024-01-28T22:54:52.504Z,5.10
2024-01-28T22:58:14.908Z,16.80
2024-01-28T23:01:38.208Z,20.20
2024-01-28T23:05:00.874Z,16.40
2024-01-28T23:08:23.180Z,15.80
2024-01-28T23:11:45.817Z,17.50
2024-01-28T23:15:14.989Z,28.40
2024-01-28T23:18:43.946Z,36.20
2024-01-28T23:22:06.663Z,30.60
2024-01-28T23:25:28.775Z,29.90
2024-01-28T23:28:53.177Z,1.00
2024-01-28T23:32:16.202Z,8.60
2024-01-28T23:35:38.773Z,1.00
2024-01-28T23:39:01.979Z,15.70
2024-01-28T23:42:24.271Z,29.90
2024-01-28T23:45:46.488Z,16.30
2024-01-28T23:49:12.009Z,27.80
2024-01-28T23:52:34.955Z,40.90
2024-01-28T23:56:00.281Z,1.00
2024-01-28T23:59:24.968Z,1.00
